Time;durP1;ratioP1;P1;durP2;ratioP2;P2;SDS_P1;SDS_P2;PMS_P1;PMS_P2;Temp;Humidity;BMP_temperature;BMP_pressure;BME280_temperature;BME280_humidity;BME280_pressure;Samples;Min_cycle;Max_cycle;Signal;HPM_P1;HPM_P2
2022/05/24 00:00:15;;;;;;;17.00;13.53;;;;;;;13.01;100.00;99464.50;690260;28;1218;-47
2022/05/24 00:00:37;;;;;;;17.02;13.35;;;;;;;12.94;100.00;99458.63;689930;28;4297;-46
2022/05/24 00:00:57;;;;;;;18.08;13.45;;;;;;;12.93;100.00;99458.66;689135;28;1176;-45
2022/05/24 00:01:18;;;;;;;19.77;13.93;;;;;;;12.92;100.00;99460.44;690318;28;1307;-46
2022/05/24 00:01:38;;;;;;;18.80;14.00;;;;;;;12.91;100.00;99461.34;690670;28;1140;-46
2022/05/24 00:01:59;;;;;;;18.90;13.85;;;;;;;12.94;100.00;99463.00;689103;28;1563;-46
2022/05/24 00:02:19;;;;;;;18.23;13.20;;;;;;;12.92;100.00;99457.81;690592;28;1103;-46
2022/05/24 00:02:40;;;;;;;17.23;12.98;;;;;;;12.90;100.00;99450.91;690849;28;1263;-45
2022/05/24 00:03:05;;;;;;;20.05;14.25;;;;;;;12.87;100.00;99451.00;689607;28;1235;-46
2022/05/24 00:03:25;;;;;;;20.13;14.18;;;;;;;12.86;100.00;99463.28;689096;28;4297;-46
2022/05/24 00:03:46;;;;;;;20.07;14.03;;;;;;;12.87;100.00;99466.75;690653;28;1256;-44
2022/05/24 00:04:06;;;;;;;17.63;13.90;;;;;;;12.85;100.00;99461.56;689641;28;1183;-47
2022/05/24 00:04:27;;;;;;;18.40;14.15;;;;;;;12.86;100.00;99462.41;690500;28;1001;-46
2022/05/24 00:04:48;;;;;;;20.15;14.95;;;;;;;12.83;100.00;99454.63;690629;28;1293;-46
2022/05/24 00:05:10;;;;;;;20.17;14.07;;;;;;;12.83;100.00;99458.09;690352;28;1437;-46
2022/05/24 00:05:33;;;;;;;19.70;13.35;;;;;;;12.83;100.00;99460.72;690838;28;1270;-46
2022/05/24 00:05:54;;;;;;;18.95;13.43;;;;;;;12.83;100.00;99460.72;690043;28;1119;-49
2022/05/24 00:06:15;;;;;;;18.45;13.45;;;;;;;12.84;100.00;99457.22;691081;28;1469;-46
2022/05/24 00:06:35;;;;;;;18.45;13.18;;;;;;;12.86;100.00;99450.16;689327;28;4445;-46
2022/05/24 00:06:56;;;;;;;17.87;13.17;;;;;;;12.88;100.00;99452.72;689956;28;1694;-48
2022/05/24 00:07:16;;;;;;;19.48;13.32;;;;;;;12.87;100.00;99453.63;689758;28;1302;-46
2022/05/24 00:07:38;;;;;;;19.42;13.98;;;;;;;12.88;100.00;99452.72;687408;28;1289;-47
2022/05/24 00:07:58;;;;;;;18.88;14.20;;;;;;;12.88;100.00;99448.34;684289;28;1341;-47
2022/05/24 00:08:19;;;;;;;20.33;13.98;;;;;;;12.91;100.00;99453.47;682638;28;1144;-45
2022/05/24 00:08:41;;;;;;;19.70;13.57;;;;;;;12.92;100.00;99459.59;683117;28;1162;-45
2022/05/24 00:09:02;;;;;;;17.90;13.73;;;;;;;12.92;100.00;99449.09;684344;28;1367;-46
2022/05/24 00:09:22;;;;;;;19.00;14.23;;;;;;;13.03;100.00;99453.94;687328;28;4820;-47
2022/05/24 00:09:43;;;;;;;19.58;14.48;;;;;;;13.06;100.00;99452.09;690499;28;1274;-46
2022/05/24 00:10:06;;;;;;;19.33;14.53;;;;;;;13.05;100.00;99449.53;692045;28;1154;-47
2022/05/24 00:10:30;;;;;;;19.20;14.07;;;;;;;13.06;100.00;99448.63;692337;28;1433;-46
2022/05/24 00:10:53;;;;;;;18.77;14.00;;;;;;;13.06;100.00;99446.84;689224;28;1898;-45
2022/05/24 00:11:13;;;;;;;18.52;14.07;;;;;;;13.05;100.00;99446.91;689771;28;1473;-45
2022/05/24 00:11:33;;;;;;;18.83;14.13;;;;;;;13.01;100.00;99453.16;690688;28;1457;-46
2022/05/24 00:11:54;;;;;;;19.93;14.77;;;;;;;12.98;100.00;99451.50;690382;28;1215;-46
2022/05/24 00:12:14;;;;;;;19.48;14.40;;;;;;;12.99;100.00;99449.72;691483;28;1159;-47
2022/05/24 00:12:35;;;;;;;19.70;14.50;;;;;;;12.97;100.00;99443.69;691969;28;4525;-46
2022/05/24 00:12:56;;;;;;;20.88;14.90;;;;;;;12.98;100.00;99453.28;690223;28;1234;-47
2022/05/24 00:13:16;;;;;;;19.58;14.50;;;;;;;12.97;100.00;99452.41;690424;28;1825;-47
2022/05/24 00:13:37;;;;;;;18.87;14.13;;;;;;;12.98;100.00;99448.88;689545;28;3749;-46
2022/05/24 00:13:57;;;;;;;20.45;14.88;;;;;;;12.98;100.00;99450.66;689618;28;1408;-47
2022/05/24 00:15:19;;;;;;;17.90;14.50;;;;;;;13.01;100.00;99453.16;690602;28;1171;-47
2022/05/24 00:15:19;;;;;;;18.70;14.73;;;;;;;12.98;100.00;99448.88;688823;28;1227;-46
2022/05/24 00:15:40;;;;;;;18.92;14.38;;;;;;;12.97;100.00;99447.16;690074;28;4277;-46
2022/05/24 00:16:01;;;;;;;19.48;13.98;;;;;;;12.93;100.00;99445.53;690321;28;1345;-47
2022/05/24 00:16:22;;;;;;;18.02;13.35;;;;;;;12.93;100.00;99449.03;689803;28;1338;-46
2022/05/24 00:16:42;;;;;;;17.80;13.50;;;;;;;12.91;100.00;99448.22;689517;28;1247;-47
2022/05/24 00:17:03;;;;;;;18.37;14.07;;;;;;;12.90;100.00;99446.53;690711;28;1301;-46
2022/05/24 00:17:24;;;;;;;19.02;14.05;;;;;;;12.92;100.00;99446.47;690797;28;4555;-47
2022/05/24 00:17:51;;;;;;;20.60;14.27;;;;;;;12.91;100.00;99452.63;689649;28;1223;-47
2022/05/24 00:18:18;;;;;;;20.20;14.98;;;;;;;12.90;100.00;99449.16;688992;28;1641;-46
2022/05/24 00:18:39;;;;;;;19.38;14.45;;;;;;;12.92;100.00;99455.19;689377;28;4411;-46
2022/05/24 00:19:01;;;;;;;19.30;14.55;;;;;;;12.92;100.00;99455.19;689577;28;1633;-45
2022/05/24 00:19:21;;;;;;;20.87;15.30;;;;;;;12.97;100.00;99452.41;689736;28;1388;-46
2022/05/24 00:19:41;;;;;;;19.38;14.68;;;;;;;12.99;100.00;99453.22;690180;28;1503;-45
2022/05/24 00:20:04;;;;;;;19.70;14.63;;;;;;;12.97;100.00;99448.94;690591;28;1305;-47
2022/05/24 00:20:39;;;;;;;19.90;15.10;;;;;;;12.94;100.00;99444.63;690680;28;1262;-46
2022/05/24 00:21:01;;;;;;;18.88;14.68;;;;;;;12.93;100.00;99449.03;690540;28;1388;-45
2022/05/24 00:21:22;;;;;;;21.50;14.48;;;;;;;12.92;100.00;99449.09;691419;28;1345;-46
2022/05/24 00:21:42;;;;;;;20.37;14.57;;;;;;;12.93;100.00;99450.78;690574;28;4270;-47
2022/05/24 00:22:03;;;;;;;19.88;14.40;;;;;;;12.92;100.00;99455.19;690513;28;1259;-47
2022/05/24 00:22:23;;;;;;;20.93;14.33;;;;;;;12.92;100.00;99452.56;690594;28;1306;-45
2022/05/24 00:22:44;;;;;;;20.40;14.45;;;;;;;12.90;100.00;99451.78;690498;28;2301;-47
2022/05/24 00:23:04;;;;;;;20.47;14.93;;;;;;;12.89;100.00;99455.31;688629;28;1349;-46
2022/05/24 00:23:27;;;;;;;21.27;14.93;;;;;;;12.89;100.00;99450.06;688373;28;1314;-46
2022/05/24 00:23:47;;;;;;;20.33;15.15;;;;;;;12.88;100.00;99458.81;689684;28;1321;-46
2022/05/24 00:24:08;;;;;;;21.05;15.32;;;;;;;12.88;100.00;99464.06;688969;28;1052;-45
2022/05/24 00:24:28;;;;;;;21.40;15.90;;;;;;;12.86;100.00;99458.03;689116;28;4317;-45
2022/05/24 00:24:48;;;;;;;21.50;16.25;;;;;;;12.85;100.00;99458.06;690535;28;1310;-46
2022/05/24 00:25:09;;;;;;;24.70;16.63;;;;;;;12.85;100.00;99461.56;690011;28;1204;-47
2022/05/24 00:25:32;;;;;;;21.95;15.32;;;;;;;12.91;100.00;99463.13;689667;28;1350;-47
2022/05/24 00:25:56;;;;;;;22.13;15.25;;;;;;;12.95;100.00;99459.47;690257;28;1522;-46
2022/05/24 00:26:28;;;;;;;22.90;15.88;;;;;;;12.95;100.00;99457.69;689953;28;1251;-46
2022/05/24 00:26:49;;;;;;;20.63;15.90;;;;;;;12.99;100.00;99461.09;691500;28;1342;-47
2022/05/24 00:27:09;;;;;;;22.45;15.77;;;;;;;12.97;100.00;99465.50;689830;28;1562;-45
2022/05/24 00:27:30;;;;;;;23.07;16.00;;;;;;;12.94;100.00;99458.63;689953;28;4390;-46
2022/05/24 00:27:50;;;;;;;23.85;16.52;;;;;;;12.93;100.00;99456.91;687824;28;1319;-47
2022/05/24 00:28:13;;;;;;;22.05;15.80;;;;;;;12.94;100.00;99457.75;687043;28;1326;-46
2022/05/24 00:28:35;;;;;;;21.85;15.20;;;;;;;12.94;100.00;99456.00;687690;28;1643;-46
2022/05/24 00:28:55;;;;;;;20.50;15.23;;;;;;;12.94;100.00;99458.63;688263;28;1577;-45
2022/05/24 00:29:15;;;;;;;18.97;14.87;;;;;;;12.93;100.00;99454.28;687673;28;1700;-45
2022/05/24 00:29:36;;;;;;;19.70;14.70;;;;;;;12.93;100.00;99454.28;689327;28;1277;-48
2022/05/24 00:29:57;;;;;;;19.55;14.80;;;;;;;12.93;100.00;99454.28;690758;28;1222;-45
2022/05/24 00:30:18;;;;;;;21.33;15.73;;;;;;;12.91;100.00;99453.47;692403;28;1338;-47
2022/05/24 00:30:39;;;;;;;22.73;16.13;;;;;;;12.90;100.00;99462.28;692250;28;4295;-47
2022/05/24 00:31:00;;;;;;;22.67;15.52;;;;;;;12.90;100.00;99456.16;693258;28;1923;-47
2022/05/24 00:31:20;;;;;;;22.23;16.15;;;;;;;12.88;100.00;99456.19;688658;28;1447;-46
2022/05/24 00:31:43;;;;;;;22.38;16.20;;;;;;;12.87;100.00;99467.59;689610;28;1313;-46
2022/05/24 00:32:04;;;;;;;23.48;16.90;;;;;;;12.86;100.00;99459.78;691343;28;1483;-46
2022/05/24 00:32:24;;;;;;;23.48;16.40;;;;;;;12.86;100.00;99454.53;689381;28;1355;-46
2022/05/24 00:32:46;;;;;;;24.90;16.23;;;;;;;12.85;100.00;99464.19;689658;28;1545;-46
2022/05/24 00:33:07;;;;;;;25.50;16.45;;;;;;;12.85;100.00;99461.56;690983;28;1440;-46
2022/05/24 00:33:28;;;;;;;23.45;16.60;;;;;;;12.84;100.00;99465.06;689389;28;4604;-45
2022/05/24 00:33:48;;;;;;;22.67;16.98;;;;;;;12.86;100.00;99465.91;689352;28;1369;-45
2022/05/24 00:34:09;;;;;;;22.57;16.27;;;;;;;12.84;100.00;99462.47;689716;28;1227;-46
2022/05/24 00:34:29;;;;;;;22.52;16.55;;;;;;;12.83;100.00;99459.88;690359;28;1452;-46
2022/05/24 00:34:49;;;;;;;24.00;16.67;;;;;;;12.84;100.00;99459.00;689764;28;1270;-45
2022/05/24 00:35:10;;;;;;;24.03;16.80;;;;;;;12.83;100.00;99459.88;690441;28;1389;-47
2022/05/24 00:35:32;;;;;;;25.23;17.17;;;;;;;12.84;100.00;99461.63;689231;28;1210;-46
2022/05/24 00:35:52;;;;;;;25.70;17.55;;;;;;;12.88;100.00;99456.19;689193;28;1199;-45
2022/05/24 00:36:13;;;;;;;26.48;17.35;;;;;;;12.91;100.00;99456.09;690379;28;1389;-45
2022/05/24 00:36:33;;;;;;;23.90;17.17;;;;;;;12.99;100.00;99453.22;688511;28;4544;-45
2022/05/24 00:36:54;;;;;;;22.83;16.03;;;;;;;13.02;100.00;99454.88;691623;28;1088;-46
2022/05/24 00:37:15;;;;;;;23.73;16.65;;;;;;;13.02;100.00;99454.88;691365;28;1163;-45
2022/05/24 00:37:39;;;;;;;22.92;16.23;;;;;;;13.02;100.00;99460.97;688867;28;1214;-46
2022/05/24 00:37:59;;;;;;;23.33;16.10;;;;;;;13.01;100.00;99453.16;691772;28;1457;-47
2022/05/24 00:38:25;;;;;;;22.30;15.30;;;;;;;13.01;100.00;99454.00;691278;28;1286;-47
2022/05/24 00:38:47;;;;;;;23.83;16.27;;;;;;;12.99;100.00;99455.84;690423;28;1864;-45
2022/05/24 00:39:07;;;;;;;22.52;15.55;;;;;;;12.99;100.00;99452.34;690602;28;1239;-45
2022/05/24 00:39:28;;;;;;;22.10;15.87;;;;;;;12.97;100.00;99447.16;689656;28;4342;-45
2022/05/24 00:39:48;;;;;;;21.47;15.67;;;;;;;12.98;100.00;99448.03;690205;28;1288;-46
2022/05/24 00:40:13;;;;;;;22.48;15.98;;;;;;;12.98;100.00;99448.03;689276;28;1361;-47
2022/05/24 00:40:46;;;;;;;22.23;16.17;;;;;;;13.00;100.00;99451.44;690501;28;1162;-46
2022/05/24 00:41:24;;;;;;;23.30;16.10;;;;;;;13.01;100.00;99448.75;690525;28;1211;-45
2022/05/24 00:41:56;;;;;;;25.10;16.42;;;;;;;13.01;100.00;99450.53;690295;28;1341;-45
2022/05/24 00:42:25;;;;;;;22.92;16.30;;;;;;;13.05;100.00;99449.53;690359;28;1210;-46
2022/05/24 00:42:47;;;;;;;22.08;15.93;;;;;;;13.05;100.00;99449.53;693167;28;6440;-46
2022/05/24 00:43:37;;;;;;;22.90;16.48;;;;;;;13.14;100.00;99448.34;693152;28;1368;-46
2022/05/24 00:44:06;;;;;;;23.48;16.10;;;;;;;13.15;100.00;99448.28;683444;28;1374;-46
2022/05/24 00:44:35;;;;;;;21.17;15.57;;;;;;;13.15;100.00;99447.44;689507;28;1306;-45
2022/05/24 00:45:08;;;;;;;20.98;15.23;;;;;;;13.20;100.00;99443.75;690066;28;1420;-46
2022/05/24 00:45:40;;;;;;;21.88;15.23;;;;;;;13.20;100.00;99443.75;687584;28;4384;-49
2022/05/24 00:46:19;;;;;;;20.80;14.98;;;;;;;13.19;100.00;99439.41;687848;28;1272;-45
2022/05/24 00:46:46;;;;;;;23.23;16.38;;;;;;;13.15;100.00;99440.41;690513;28;975;-45
2022/05/24 00:47:12;;;;;;;22.33;15.43;;;;;;;13.13;100.00;99431.75;689960;28;1314;-46
2022/05/24 00:47:48;;;;;;;24.08;16.05;;;;;;;13.10;100.00;99443.22;692739;28;1492;-45
2022/05/24 00:48:18;;;;;;;23.58;15.75;;;;;;;13.11;100.00;99451.94;691597;28;1436;-46
2022/05/24 00:49:04;;;;;;;22.83;15.68;;;;;;;13.22;100.00;99441.94;689926;28;4595;-45
2022/05/24 00:49:30;;;;;;;22.05;15.60;;;;;;;13.22;100.00;99441.94;689228;28;1274;-47
2022/05/24 00:49:59;;;;;;;21.25;15.15;;;;;;;13.21;100.00;99444.59;689409;28;1370;-46
2022/05/24 00:50:27;;;;;;;20.88;15.05;;;;;;;13.26;100.00;99443.53;690243;28;1353;-45
2022/05/24 00:50:49;;;;;;;22.20;15.25;;;;;;;13.29;100.00;99438.19;689532;28;1445;-45
2022/05/24 00:51:15;;;;;;;20.05;14.90;;;;;;;13.27;100.00;99437.34;690271;28;1381;-45
2022/05/24 00:51:47;;;;;;;22.50;14.57;;;;;;;13.23;100.00;99445.41;691163;28;4556;-46
2022/05/24 00:52:14;;;;;;;23.63;14.65;;;;;;;13.21;100.00;99445.47;689373;28;1337;-45
2022/05/24 00:53:16;;;;;;;23.42;14.77;;;;;;;13.17;100.00;99433.34;688782;28;1941;-46
2022/05/24 00:53:41;;;;;;;22.13;15.57;;;;;;;13.12;100.00;99440.53;684742;28;1329;-46
2022/05/24 00:54:01;;;;;;;21.50;15.50;;;;;;;13.09;100.00;99438.88;683702;28;1342;-46
2022/05/24 00:54:22;;;;;;;23.60;15.43;;;;;;;13.07;100.00;99432.81;684919;28;1370;-45
2022/05/24 00:54:43;;;;;;;24.33;15.80;;;;;;;13.05;100.00;99436.41;684064;28;4415;-45
2022/05/24 00:55:04;;;;;;;21.85;15.63;;;;;;;13.03;100.00;99438.22;683836;28;1125;-45
2022/05/24 00:55:28;;;;;;;22.52;16.33;;;;;;;12.98;100.00;99432.28;683793;28;2233;-47
2022/05/24 00:56:28;;;;;;;23.20;16.17;;;;;;;13.02;100.00;99431.28;685000;28;1323;-45
2022/05/24 00:57:03;;;;;;;23.38;15.93;;;;;;;13.05;100.00;99431.16;692953;28;1378;-46
2022/05/24 00:57:30;;;;;;;21.45;15.82;;;;;;;13.06;100.00;99431.09;688527;28;4557;-46
2022/05/24 00:57:59;;;;;;;24.25;15.65;;;;;;;13.05;100.00;99431.16;689609;28;1246;-45
2022/05/24 00:58:24;;;;;;;21.60;15.35;;;;;;;13.01;100.00;99434.81;690100;28;1377;-46
2022/05/24 00:58:53;;;;;;;23.35;16.13;;;;;;;13.01;100.00;99434.81;691161;28;1397;-46
2022/05/24 00:59:38;;;;;;;21.65;15.50;;;;;;;13.00;100.00;99439.19;691037;28;1476;-46
2022/05/24 01:00:03;;;;;;;22.08;15.48;;;;;;;13.01;100.00;99445.28;682007;28;1340;-46
2022/05/24 01:00:23;;;;;;;24.45;16.27;;;;;;;13.01;100.00;99442.66;689656;28;4548;-46
2022/05/24 01:00:44;;;;;;;24.25;16.10;;;;;;;12.98;100.00;99437.53;688572;28;1342;-46
2022/05/24 01:01:28;;;;;;;24.83;16.48;;;;;;;12.95;100.00;99434.09;689349;28;1327;-46
2022/05/24 01:01:48;;;;;;;23.48;16.48;;;;;;;12.96;100.00;99429.72;689087;28;1266;-45
2022/05/24 01:02:09;;;;;;;23.27;15.55;;;;;;;12.98;100.00;99432.28;689361;28;1345;-45
2022/05/24 01:02:29;;;;;;;21.08;15.48;;;;;;;12.98;100.00;99422.66;690037;28;1471;-46
2022/05/24 01:02:52;;;;;;;21.00;15.38;;;;;;;12.99;100.00;99420.88;689249;28;1969;-45
2022/05/24 01:03:13;;;;;;;23.08;15.57;;;;;;;13.00;100.00;99417.34;690190;28;1460;-45
2022/05/24 01:03:33;;;;;;;22.80;15.93;;;;;;;12.99;100.00;99424.38;689162;28;4721;-45
2022/05/24 01:03:54;;;;;;;22.60;15.70;;;;;;;12.97;100.00;99415.66;689218;28;1246;-46
2022/05/24 01:04:22;;;;;;;21.23;15.35;;;;;;;12.98;100.00;99416.56;690549;28;1372;-46
2022/05/24 01:04:42;;;;;;;21.20;15.30;;;;;;;12.95;100.00;99417.50;688589;28;1318;-46
2022/05/24 01:05:05;;;;;;;20.38;14.68;;;;;;;12.97;100.00;99414.84;689896;28;1143;-45
2022/05/24 01:05:29;;;;;;;20.70;14.85;;;;;;;12.98;100.00;99414.78;689078;28;1471;-46
2022/05/24 01:05:49;;;;;;;25.00;15.85;;;;;;;12.97;100.00;99418.28;689109;28;1457;-46
2022/05/24 01:06:09;;;;;;;23.13;15.37;;;;;;;12.97;100.00;99420.06;690666;28;1372;-46
2022/05/24 01:06:30;;;;;;;22.40;15.10;;;;;;;12.96;100.00;99421.84;689665;28;4593;-45
2022/05/24 01:06:50;;;;;;;23.47;15.70;;;;;;;12.94;100.00;99419.28;689747;28;1337;-47
2022/05/24 01:07:11;;;;;;;25.35;16.13;;;;;;;12.94;100.00;99416.66;689758;28;1400;-45
2022/05/24 01:07:31;;;;;;;25.57;16.00;;;;;;;12.94;100.00;99419.28;688626;28;1536;-45
2022/05/24 01:07:52;;;;;;;24.37;16.20;;;;;;;12.95;100.00;99418.34;689221;28;1311;-45
2022/05/24 01:08:12;;;;;;;24.30;15.83;;;;;;;12.96;100.00;99427.09;687137;28;1307;-48
2022/05/24 01:08:32;;;;;;;24.52;15.38;;;;;;;12.94;100.00;99415.78;687526;28;1338;-45
2022/05/24 01:08:57;;;;;;;25.23;16.03;;;;;;;12.94;100.00;99426.28;686854;28;1585;-46
2022/05/24 01:09:29;;;;;;;23.60;16.08;;;;;;;13.02;100.00;99416.38;688345;28;1429;-45
2022/05/24 01:10:07;;;;;;;20.83;14.70;;;;;;;13.03;100.00;99419.84;689344;28;4802;-46
2022/05/24 01:10:38;;;;;;;22.02;15.50;;;;;;;13.02;100.00;99418.16;690243;28;1300;-45
2022/05/24 01:11:01;;;;;;;22.58;15.55;;;;;;;13.00;100.00;99412.09;689725;28;1210;-46
2022/05/24 01:11:23;;;;;;;22.70;15.38;;;;;;;12.97;100.00;99415.66;689542;28;1462;-46
2022/05/24 01:11:48;;;;;;;22.13;15.65;;;;;;;12.95;100.00;99407.84;690398;28;1392;-46
2022/05/24 01:12:23;;;;;;;21.92;15.18;;;;;;;12.94;100.00;99415.78;690787;28;1306;-48
2022/05/24 01:12:54;;;;;;;22.35;15.77;;;;;;;12.93;100.00;99409.69;688918;28;4929;-46
2022/05/24 01:13:19;;;;;;;23.63;16.05;;;;;;;12.91;100.00;99411.50;690238;28;1299;-46
2022/05/24 01:13:41;;;;;;;23.23;15.70;;;;;;;12.90;100.00;99419.44;690041;28;1314;-45
2022/05/24 01:14:05;;;;;;;21.85;15.43;;;;;;;12.90;100.00;99407.19;687731;28;1164;-45
2022/05/24 01:14:26;;;;;;;20.92;15.60;;;;;;;12.92;100.00;99410.59;687751;28;1347;-46
2022/05/24 01:14:47;;;;;;;21.98;15.73;;;;;;;12.92;100.00;99407.13;687549;28;1318;-46
2022/05/24 01:15:10;;;;;;;23.67;15.93;;;;;;;12.92;100.00;99407.97;686834;28;1437;-45
2022/05/24 01:15:31;;;;;;;22.88;15.30;;;;;;;12.98;100.00;99411.31;686678;28;4394;-45
2022/05/24 01:15:52;;;;;;;22.50;15.18;;;;;;;13.04;100.00;99409.34;688515;28;1299;-45
2022/05/24 01:16:13;;;;;;;22.08;15.07;;;;;;;13.03;100.00;99406.72;691091;28;1543;-46
2022/05/24 01:16:37;;;;;;;20.95;14.75;;;;;;;13.01;100.00;99411.19;691293;28;1190;-45
2022/05/24 01:16:59;;;;;;;20.95;15.07;;;;;;;13.05;100.00;99411.03;692419;28;1362;-45
2022/05/24 01:17:20;;;;;;;22.00;15.15;;;;;;;13.06;100.00;99410.13;691414;28;4694;-46
2022/05/24 01:17:42;;;;;;;21.02;14.73;;;;;;;13.05;100.00;99415.41;692302;28;1444;-46
2022/05/24 01:18:03;;;;;;;20.98;14.70;;;;;;;13.03;100.00;99411.97;693328;28;1286;-45
2022/05/24 01:18:24;;;;;;;20.35;14.73;;;;;;;13.03;100.00;99417.22;692096;28;5076;-45
2022/05/24 01:18:46;;;;;;;20.65;14.95;;;;;;;13.01;100.00;99411.19;687668;28;1393;-46
2022/05/24 01:19:13;;;;;;;20.90;14.93;;;;;;;13.01;100.00;99416.44;688142;28;1584;-45
2022/05/24 01:19:41;;;;;;;22.38;15.18;;;;;;;13.02;100.00;99419.00;687266;28;1386;-47
2022/05/24 01:20:03;;;;;;;21.85;14.68;;;;;;;13.00;100.00;99420.84;689461;28;1751;-47
2022/05/24 01:20:25;;;;;;;20.45;15.00;;;;;;;13.00;100.00;99420.84;691119;28;1306;-45
2022/05/24 01:20:51;;;;;;;20.55;14.95;;;;;;;13.02;100.00;99418.16;690274;28;1128;-46
2022/05/24 01:21:15;;;;;;;21.02;14.63;;;;;;;12.99;100.00;99423.47;689343;28;1496;-46
2022/05/24 01:21:38;;;;;;;21.20;14.18;;;;;;;13.06;100.00;99420.63;688215;28;4540;-46
2022/05/24 01:22:14;;;;;;;22.52;14.68;;;;;;;13.15;100.00;99423.81;690126;28;1191;-46
2022/05/24 01:23:10;;;;;;;20.45;14.60;;;;;;;13.13;100.00;99429.13;689849;28;1291;-45
2022/05/24 01:23:48;;;;;;;19.52;14.23;;;;;;;13.07;100.00;99422.34;689585;28;1409;-46
2022/05/24 01:24:09;;;;;;;21.08;14.77;;;;;;;13.06;100.00;99425.84;689569;28;1448;-45
2022/05/24 01:24:39;;;;;;;20.30;14.30;;;;;;;13.05;100.00;99425.91;688404;28;4586;-45
2022/05/24 01:25:22;;;;;;;19.88;14.52;;;;;;;13.04;100.00;99422.44;689301;28;1159;-46
2022/05/24 01:25:45;;;;;;;20.88;14.32;;;;;;;13.08;100.00;99433.69;681015;28;1197;-45
2022/05/24 01:26:24;;;;;;;21.90;14.50;;;;;;;13.20;100.00;99428.00;688478;28;1838;-46
2022/05/24 01:26:51;;;;;;;20.70;14.52;;;;;;;13.28;100.00;99439.09;689868;28;1325;-46
2022/05/24 01:27:14;;;;;;;18.67;14.05;;;;;;;13.31;100.00;99432.03;690440;28;1516;-45
2022/05/24 01:27:35;;;;;;;18.87;13.40;;;;;;;13.31;100.00;99437.28;689189;28;4530;-45
2022/05/24 01:27:58;;;;;;;19.67;13.40;;;;;;;13.29;100.00;99442.56;690141;28;1310;-46
2022/05/24 01:28:31;;;;;;;19.23;13.77;;;;;;;13.25;100.00;99440.94;690149;28;1416;-46
2022/05/24 01:28:55;;;;;;;20.55;14.38;;;;;;;13.27;100.00;99433.88;689118;28;1622;-46
2022/05/24 01:29:18;;;;;;;20.10;14.68;;;;;;;13.23;100.00;99433.13;689693;28;1350;-46
2022/05/24 01:29:39;;;;;;;20.30;13.82;;;;;;;13.22;100.00;99434.06;686102;28;1355;-46
2022/05/24 01:29:59;;;;;;;22.13;13.97;;;;;;;13.23;100.00;99433.13;686647;28;1259;-46
2022/05/24 01:30:20;;;;;;;21.42;14.30;;;;;;;13.25;100.00;99433.06;688151;28;1096;-46
2022/05/24 01:30:40;;;;;;;19.00;13.77;;;;;;;13.26;100.00;99427.78;683814;28;4795;-46
2022/05/24 01:31:03;;;;;;;17.70;13.60;;;;;;;13.26;100.00;99433.03;685837;28;1371;-46
2022/05/24 01:31:26;;;;;;;18.73;13.80;;;;;;;13.26;100.00;99433.03;688363;28;1069;-47
2022/05/24 01:36:28;;;;;;;20.10;13.80;;;;;;;13.44;100.00;99435.94;689717;28;4430;-45
2022/05/24 01:36:48;;;;;;;18.90;13.50;;;;;;;13.44;100.00;99428.94;689761;28;1325;-47
2022/05/24 01:37:11;;;;;;;18.37;13.47;;;;;;;13.44;100.00;99435.94;689562;28;1424;-45
2022/05/24 01:37:31;;;;;;;19.23;13.63;;;;;;;13.36;100.00;99438.84;689843;28;1095;-46
2022/05/24 01:37:52;;;;;;;21.17;14.38;;;;;;;13.31;100.00;99434.66;690089;28;1259;-46
2022/05/24 01:38:17;;;;;;;19.23;14.15;;;;;;;13.26;100.00;99434.78;689256;28;1583;-44
2022/05/24 01:38:43;;;;;;;19.48;14.40;;;;;;;13.25;100.00;99430.44;690030;28;1377;-46
2022/05/24 01:39:07;;;;;;;20.40;14.40;;;;;;;13.23;100.00;99438.38;689804;28;1219;-45
2022/05/24 01:39:28;;;;;;;19.80;13.73;;;;;;;13.26;100.00;99442.66;689361;28;4462;-46
2022/05/24 01:39:52;;;;;;;18.80;13.85;;;;;;;13.24;100.00;99437.47;689240;28;1208;-46
2022/05/24 01:40:13;;;;;;;18.95;13.85;;;;;;;13.25;100.00;99431.31;689948;28;1085;-46
2022/05/24 01:40:34;;;;;;;19.70;14.35;;;;;;;13.28;100.00;99425.97;689025;28;1523;-46
2022/05/24 01:40:55;;;;;;;21.25;14.73;;;;;;;13.36;100.00;99432.72;690055;28;1187;-46
2022/05/24 01:41:30;;;;;;;19.98;14.25;;;;;;;13.37;100.00;99439.69;689849;28;1191;-45
2022/05/24 01:41:51;;;;;;;19.80;13.45;;;;;;;13.37;100.00;99431.81;688666;28;1438;-45
2022/05/24 01:42:13;;;;;;;19.30;14.23;;;;;;;13.35;100.00;99438.88;689276;28;1378;-45
2022/05/24 01:42:34;;;;;;;18.80;13.90;;;;;;;13.37;100.00;99434.44;685090;28;4378;-45
2022/05/24 01:42:54;;;;;;;18.23;13.60;;;;;;;13.38;100.00;99430.91;686368;28;1914;-47
2022/05/24 01:43:17;;;;;;;16.90;13.40;;;;;;;13.42;100.00;99432.53;687832;28;1279;-45
2022/05/24 01:43:39;;;;;;;17.85;13.65;;;;;;;13.56;100.00;99422.34;687916;28;1730;-47
2022/05/24 01:44:00;;;;;;;20.45;14.00;;;;;;;13.53;100.00;99430.34;686482;28;1335;-46
2022/05/24 01:44:26;;;;;;;18.57;13.67;;;;;;;13.53;100.00;99435.59;687286;28;1283;-45
2022/05/24 01:44:53;;;;;;;19.27;14.30;;;;;;;13.49;100.00;99435.78;690342;28;1322;-46
2022/05/24 01:45:23;;;;;;;17.50;12.85;;;;;;;13.56;100.00;99435.50;687563;28;1160;-45
2022/05/24 01:45:50;;;;;;;17.63;13.10;;;;;;;13.53;100.00;99426.88;684851;28;4906;-47
2022/05/24 01:46:13;;;;;;;18.77;12.88;;;;;;;13.56;100.00;99427.63;687547;28;1231;-45
2022/05/24 01:46:43;;;;;;;18.35;13.35;;;;;;;13.54;100.00;99431.19;687564;28;1540;-46
2022/05/24 01:47:04;;;;;;;17.77;14.10;;;;;;;13.51;100.00;99431.31;688516;28;1299;-45
2022/05/24 01:47:26;;;;;;;19.10;14.15;;;;;;;13.52;100.00;99431.25;690646;28;1318;-46
2022/05/24 01:47:50;;;;;;;17.27;13.20;;;;;;;13.50;100.00;99435.72;692994;28;1416;-45
2022/05/24 01:48:16;;;;;;;18.02;13.38;;;;;;;13.47;100.00;99434.97;692698;28;1562;-47
2022/05/24 01:48:48;;;;;;;18.63;13.23;;;;;;;13.51;100.00;99431.31;689561;28;4507;-46
2022/05/24 01:49:17;;;;;;;16.38;13.02;;;;;;;13.56;100.00;99435.50;689505;28;1361;-45
2022/05/24 01:49:42;;;;;;;18.25;13.57;;;;;;;13.59;100.00;99430.13;690472;28;1583;-45
2022/05/24 01:50:10;;;;;;;17.00;13.05;;;;;;;13.56;100.00;99435.50;688694;28;1353;-44
2022/05/24 01:50:32;;;;;;;17.17;13.15;;;;;;;13.57;100.00;99434.59;689026;28;1555;-47
2022/05/24 01:50:54;;;;;;;15.30;12.52;;;;;;;13.65;100.00;99431.66;689780;28;1503;-44
2022/05/24 01:51:21;;;;;;;16.00;12.75;;;;;;;13.62;100.00;99434.41;689217;28;1314;-46
2022/05/24 01:51:48;;;;;;;16.58;13.05;;;;;;;13.56;100.00;99438.13;688137;28;4388;-46
2022/05/24 01:52:24;;;;;;;18.67;13.93;;;;;;;13.61;100.00;99437.97;690812;28;1333;-45
2022/05/24 01:52:52;;;;;;;15.80;12.75;;;;;;;13.54;100.00;99436.44;688355;28;1494;-45
2022/05/24 01:53:16;;;;;;;15.98;13.18;;;;;;;13.53;100.00;99435.59;689026;28;1448;-44
2022/05/24 01:53:45;;;;;;;16.48;13.75;;;;;;;13.51;100.00;99437.41;689560;28;1275;-45
2022/05/24 01:54:08;;;;;;;17.90;13.20;;;;;;;13.49;100.00;99443.66;688505;28;1171;-45
2022/05/24 01:54:30;;;;;;;18.02;13.05;;;;;;;13.48;100.00;99440.16;687451;28;4540;-45
2022/05/24 01:54:57;;;;;;;17.92;13.00;;;;;;;13.54;100.00;99434.72;689625;28;1282;-46
2022/05/24 01:55:39;;;;;;;16.90;13.15;;;;;;;13.57;100.00;99431.97;689892;28;1202;-46
2022/05/24 01:56:00;;;;;;;17.00;12.80;;;;;;;13.61;100.00;99428.31;690278;28;1158;-45
2022/05/24 01:56:30;;;;;;;18.15;12.40;;;;;;;13.71;100.00;99425.34;690078;28;1218;-45
2022/05/24 01:56:57;;;;;;;15.68;11.98;;;;;;;13.66;100.00;99422.88;689748;28;1329;-47
2022/05/24 01:57:23;;;;;;;16.15;12.23;;;;;;;13.58;100.00;99423.19;689349;28;1139;-46
2022/05/24 01:57:51;;;;;;;16.55;12.38;;;;;;;13.58;100.00;99420.56;687474;28;4834;-46
2022/05/24 01:58:15;;;;;;;15.60;12.80;;;;;;;13.56;100.00;99424.97;690024;28;1189;-46
2022/05/24 01:58:39;;;;;;;15.93;12.80;;;;;;;13.52;100.00;99427.78;689378;28;1210;-44